Time;durP1;ratioP1;P1;durP2;ratioP2;P2;SDS_P1;SDS_P2;PMS_P1;PMS_P2;Temp;Humidity;BMP_temperature;BMP_pressure;BME280_temperature;BME280_humidity;BME280_pressure;Samples;Min_cycle;Max_cycle;Signal;HPM_P1;HPM_P2
2023/10/28 00:02:02;;;;;;;;;7.33;5.67;;;;;;;;5070045;28;8791;-83
2023/10/28 00:04:31;;;;;;;;;4.00;4.00;;;;;;;;5070989;28;8954;-83
2023/10/28 00:07:00;;;;;;;;;6.00;5.00;;;;;;;;5066845;28;8973;-83
2023/10/28 00:09:27;;;;;;;;;5.00;5.00;;;;;;;;5064699;28;8930;-83
2023/10/28 00:11:55;;;;;;;;;7.33;5.00;;;;;;;;5068485;28;8945;-83
2023/10/28 00:14:23;;;;;;;;;3.00;3.00;;;;;;;;5066273;28;8938;-82
2023/10/28 00:16:50;;;;;;;;;3.67;3.67;;;;;;;;5068202;28;8946;-83
2023/10/28 00:19:17;;;;;;;;;3.00;3.00;;;;;;;;5068084;28;9686;-83
2023/10/28 00:21:44;;;;;;;;;2.67;2.67;;;;;;;;5066050;28;8871;-82
2023/10/28 00:24:13;;;;;;;;;6.50;1.50;;;;;;;;5067192;28;8948;-83
2023/10/28 00:26:40;;;;;;;;;5.50;3.25;;;;;;;;5067712;28;8862;-83
2023/10/28 00:29:08;;;;;;;;;3.67;2.33;;;;;;;;5068532;28;8854;-83
2023/10/28 00:31:35;;;;;;;;;3.75;3.00;;;;;;;;5069478;28;8974;-82
2023/10/28 00:34:02;;;;;;;;;6.67;3.00;;;;;;;;5073194;28;8843;-84
2023/10/28 00:36:30;;;;;;;;;4.00;3.00;;;;;;;;5069153;28;8937;-82
2023/10/28 00:38:59;;;;;;;;;4.25;3.00;;;;;;;;5067250;28;8964;-84
2023/10/28 00:41:28;;;;;;;;;4.00;3.75;;;;;;;;5067329;28;8915;-83
2023/10/28 00:43:56;;;;;;;;;2.75;2.75;;;;;;;;5066442;28;9001;-83
2023/10/28 00:46:25;;;;;;;;;3.00;3.00;;;;;;;;5068792;28;8918;-83
2023/10/28 00:48:53;;;;;;;;;2.50;2.50;;;;;;;;5072122;28;9016;-83
2023/10/28 00:51:20;;;;;;;;;5.50;3.00;;;;;;;;5070522;28;8928;-84
2023/10/28 00:53:48;;;;;;;;;2.25;2.25;;;;;;;;5072149;28;8977;-84
2023/10/28 00:56:18;;;;;;;;;2.00;2.00;;;;;;;;5071167;28;8867;-83
2023/10/28 00:58:47;;;;;;;;;2.75;2.75;;;;;;;;5070842;28;8870;-83
2023/10/28 01:01:14;;;;;;;;;4.00;2.75;;;;;;;;5071531;28;8811;-82
2023/10/28 01:03:42;;;;;;;;;4.25;3.50;;;;;;;;5072235;28;8867;-83
2023/10/28 01:06:16;;;;;;;;;3.00;3.00;;;;;;;;5071464;28;8919;-83
2023/10/28 01:08:43;;;;;;;;;4.00;2.33;;;;;;;;5071037;28;8855;-83
2023/10/28 01:11:14;;;;;;;;;2.25;2.25;;;;;;;;5069640;28;8934;-83
2023/10/28 01:13:41;;;;;;;;;2.50;0.75;;;;;;;;5071483;28;9667;-82
2023/10/28 01:16:10;;;;;;;;;5.25;2.25;;;;;;;;5071279;28;8835;-83
2023/10/28 01:18:37;;;;;;;;;5.75;2.50;;;;;;;;5071008;28;8882;-82
2023/10/28 01:21:11;;;;;;;;;2.25;2.25;;;;;;;;5071444;28;8952;-83
2023/10/28 01:23:41;;;;;;;;;1.75;1.75;;;;;;;;5070693;28;8916;-82
2023/10/28 01:26:09;;;;;;;;;3.00;2.00;;;;;;;;5060994;28;8881;-83
2023/10/28 01:28:36;;;;;;;;;4.50;2.50;;;;;;;;5072028;28;8877;-83
2023/10/28 01:31:04;;;;;;;;;3.00;2.50;;;;;;;;5061949;28;8837;-84
2023/10/28 01:33:31;;;;;;;;;3.25;2.00;;;;;;;;5072146;28;8851;-84
2023/10/28 01:35:58;;;;;;;;;2.25;2.25;;;;;;;;5061548;28;8851;-84
2023/10/28 01:38:27;;;;;;;;;2.25;2.25;;;;;;;;5072012;28;8941;-83
2023/10/28 01:40:56;;;;;;;;;5.00;2.75;;;;;;;;5073669;28;8854;-82
2023/10/28 01:43:24;;;;;;;;;2.00;2.00;;;;;;;;5063888;28;8853;-83
2023/10/28 01:45:51;;;;;;;;;2.00;2.00;;;;;;;;5073965;28;8863;-84
2023/10/28 01:48:18;;;;;;;;;2.50;2.50;;;;;;;;5074794;28;8863;-83
2023/10/28 01:50:45;;;;;;;;;4.00;2.00;;;;;;;;5074748;28;8973;-83
2023/10/28 01:53:13;;;;;;;;;1.25;1.00;;;;;;;;5073409;28;8869;-84
2023/10/28 01:55:42;;;;;;;;;1.00;1.00;;;;;;;;5068865;28;8927;-83
2023/10/28 01:58:09;;;;;;;;;4.75;3.00;;;;;;;;5068875;28;9025;-83
2023/10/28 02:00:36;;;;;;;;;2.25;2.25;;;;;;;;5058476;28;8792;-82
2023/10/28 02:03:07;;;;;;;;;3.50;1.00;;;;;;;;5068251;28;8851;-84
2023/10/28 02:05:35;;;;;;;;;3.25;3.00;;;;;;;;5070269;28;8859;-83
2023/10/28 02:08:04;;;;;;;;;2.25;2.25;;;;;;;;5069664;28;8858;-84
2023/10/28 02:10:32;;;;;;;;;1.00;1.00;;;;;;;;5070220;28;8855;-84
2023/10/28 02:13:01;;;;;;;;;2.00;2.00;;;;;;;;5069905;28;8867;-84
2023/10/28 02:15:29;;;;;;;;;3.00;2.00;;;;;;;;5099914;28;8851;-84
2023/10/28 02:17:57;;;;;;;;;3.75;1.75;;;;;;;;5070627;28;8847;-83
2023/10/28 02:20:24;;;;;;;;;4.00;2.50;;;;;;;;5070247;28;8858;-83
2023/10/28 02:22:53;;;;;;;;;3.00;2.00;;;;;;;;5070159;28;8839;-83
2023/10/28 02:25:20;;;;;;;;;4.25;2.00;;;;;;;;5100894;28;8879;-83
2023/10/28 02:27:48;;;;;;;;;4.00;1.75;;;;;;;;5069456;28;8850;-83
2023/10/28 02:30:17;;;;;;;;;3.00;1.50;;;;;;;;5068146;28;8879;-82
2023/10/28 02:32:44;;;;;;;;;2.00;2.00;;;;;;;;5070281;28;8855;-83
2023/10/28 02:35:11;;;;;;;;;1.50;1.50;;;;;;;;5054942;28;8869;-83
2023/10/28 02:37:41;;;;;;;;;1.00;1.00;;;;;;;;5068659;28;8831;-83
2023/10/28 02:40:09;;;;;;;;;2.25;1.75;;;;;;;;5068695;28;8879;-82
2023/10/28 02:42:37;;;;;;;;;5.25;1.00;;;;;;;;5070150;28;8851;-83
2023/10/28 02:45:07;;;;;;;;;1.00;1.00;;;;;;;;5068295;28;9001;-83
2023/10/28 02:47:35;;;;;;;;;3.75;2.00;;;;;;;;5068966;28;8874;-83
2023/10/28 02:50:04;;;;;;;;;3.50;1.00;;;;;;;;5065385;28;8847;-82
2023/10/28 02:52:31;;;;;;;;;1.50;1.50;;;;;;;;5063851;28;8877;-82
2023/10/28 02:54:59;;;;;;;;;5.50;3.00;;;;;;;;5067872;28;8858;-82
2023/10/28 02:57:26;;;;;;;;;1.00;1.00;;;;;;;;5062771;28;8882;-82
2023/10/28 02:59:55;;;;;;;;;3.00;1.50;;;;;;;;5068470;28;8851;-83
2023/10/28 03:02:22;;;;;;;;;3.00;3.00;;;;;;;;5061144;28;8809;-82
2023/10/28 03:04:51;;;;;;;;;1.00;1.00;;;;;;;;5069569;28;8862;-82
2023/10/28 03:07:18;;;;;;;;;2.00;2.00;;;;;;;;5062829;28;8842;-83
2023/10/28 03:09:45;;;;;;;;;2.00;1.75;;;;;;;;5064290;28;9685;-82
2023/10/28 03:12:15;;;;;;;;;1.25;1.25;;;;;;;;5068971;28;9080;-82
2023/10/28 03:14:42;;;;;;;;;2.50;1.00;;;;;;;;5065969;28;8931;-83
2023/10/28 03:17:10;;;;;;;;;1.75;1.00;;;;;;;;5064232;28;8865;-82
2023/10/28 03:19:37;;;;;;;;;1.25;1.25;;;;;;;;5069046;28;8870;-83
2023/10/28 03:22:12;;;;;;;;;0.25;0.25;;;;;;;;5061104;28;8872;-83
2023/10/28 03:24:39;;;;;;;;;0.00;0.00;;;;;;;;5066200;28;8846;-81
2023/10/28 03:27:06;;;;;;;;;1.00;1.00;;;;;;;;5061658;28;8932;-83
2023/10/28 03:29:33;;;;;;;;;3.00;1.00;;;;;;;;5069677;28;8964;-82
2023/10/28 03:32:01;;;;;;;;;0.00;0.00;;;;;;;;5064688;28;8795;-82
2023/10/28 03:34:28;;;;;;;;;0.00;0.00;;;;;;;;5062491;28;8838;-83
2023/10/28 03:36:55;;;;;;;;;1.00;1.00;;;;;;;;5069711;28;8858;-82
2023/10/28 03:39:24;;;;;;;;;1.00;1.00;;;;;;;;5072994;28;8850;-81
2023/10/28 03:41:53;;;;;;;;;0.75;0.75;;;;;;;;5072800;28;8870;-82
2023/10/28 03:44:20;;;;;;;;;1.00;1.00;;;;;;;;5070263;28;8858;-83
2023/10/28 03:46:48;;;;;;;;;1.50;0.25;;;;;;;;5066662;28;8862;-82
2023/10/28 03:49:15;;;;;;;;;1.00;1.00;;;;;;;;5066850;28;8893;-82
2023/10/28 03:51:43;;;;;;;;;0.75;0.75;;;;;;;;5066135;28;8855;-82
2023/10/28 03:54:13;;;;;;;;;1.00;1.00;;;;;;;;5067585;28;8874;-82
2023/10/28 03:56:42;;;;;;;;;1.00;1.00;;;;;;;;5067682;28;9605;-83
2023/10/28 03:59:13;;;;;;;;;1.00;1.00;;;;;;;;5066190;28;8871;-82
2023/10/28 04:01:41;;;;;;;;;1.00;1.00;;;;;;;;5058341;28;8798;-82
2023/10/28 04:04:11;;;;;;;;;4.00;1.00;;;;;;;;5065752;28;8863;-82
2023/10/28 04:06:38;;;;;;;;;1.25;1.25;;;;;;;;5068118;28;8862;-82
2023/10/28 04:09:07;;;;;;;;;3.25;1.00;;;;;;;;5066469;28;8974;-82
2023/10/28 04:11:34;;;;;;;;;1.50;1.25;;;;;;;;5067513;28;8855;-81
2023/10/28 04:14:03;;;;;;;;;1.00;1.00;;;;;;;;5067215;28;8845;-82
2023/10/28 04:16:30;;;;;;;;;1.00;1.00;;;;;;;;5067639;28;8880;-81
2023/10/28 04:18:57;;;;;;;;;0.00;0.00;;;;;;;;5067322;28;9041;-86
2023/10/28 04:21:25;;;;;;;;;1.00;1.00;;;;;;;;5069567;28;8847;-79
2023/10/28 04:23:52;;;;;;;;;0.75;0.75;;;;;;;;5069507;28;8859;-82
2023/10/28 04:26:19;;;;;;;;;1.25;1.25;;;;;;;;5077205;28;9613;-83
2023/10/28 04:28:47;;;;;;;;;1.50;1.50;;;;;;;;5072085;28;8878;-82
2023/10/28 04:31:16;;;;;;;;;2.75;0.50;;;;;;;;5071579;28;9048;-82
2023/10/28 04:33:43;;;;;;;;;1.00;1.00;;;;;;;;5071376;28;8847;-82
2023/10/28 04:36:11;;;;;;;;;0.75;0.75;;;;;;;;5070582;28;8858;-82
2023/10/28 04:38:40;;;;;;;;;0.75;0.75;;;;;;;;5070883;28;8924;-83
2023/10/28 04:41:09;;;;;;;;;2.00;0.00;;;;;;;;5070558;28;8898;-82
2023/10/28 04:43:36;;;;;;;;;3.00;1.00;;;;;;;;5070914;28;8855;-83
2023/10/28 04:46:04;;;;;;;;;1.00;1.00;;;;;;;;5071915;28;8866;-83
2023/10/28 04:48:33;;;;;;;;;3.00;1.00;;;;;;;;5071390;28;8936;-82
2023/10/28 04:51:02;;;;;;;;;1.50;0.00;;;;;;;;5072095;28;8935;-84
2023/10/28 04:53:30;;;;;;;;;1.00;1.00;;;;;;;;5071501;28;8861;-83
2023/10/28 04:55:57;;;;;;;;;1.50;1.50;;;;;;;;5071193;28;8898;-83
2023/10/28 04:58:26;;;;;;;;;0.25;0.25;;;;;;;;5071128;28;8875;-82
2023/10/28 05:00:53;;;;;;;;;1.50;0.50;;;;;;;;5070767;28;8794;-81
2023/10/28 05:03:21;;;;;;;;;1.25;1.00;;;;;;;;5071178;28;8839;-81
2023/10/28 05:05:49;;;;;;;;;0.50;0.50;;;;;;;;5071084;28;8896;-81
2023/10/28 05:08:17;;;;;;;;;0.50;0.50;;;;;;;;5102477;28;8863;-84
2023/10/28 05:10:44;;;;;;;;;0.00;0.00;;;;;;;;5071472;28;8859;-82
2023/10/28 05:13:12;;;;;;;;;0.00;0.00;;;;;;;;5072287;28;8873;-81
2023/10/28 05:15:42;;;;;;;;;0.00;0.00;;;;;;;;5073389;28;8866;-82
2023/10/28 05:18:11;;;;;;;;;1.33;0.00;;;;;;;;5074876;28;8981;-86
2023/10/28 05:20:43;;;;;;;;;2.00;0.50;;;;;;;;5075038;28;8883;-83
2023/10/28 05:23:13;;;;;;;;;0.00;0.00;;;;;;;;5073681;28;8875;-81
2023/10/28 05:25:40;;;;;;;;;0.00;0.00;;;;;;;;5074659;28;8987;-82
2023/10/28 05:28:08;;;;;;;;;1.00;1.00;;;;;;;;5073543;28;9198;-84
2023/10/28 05:30:35;;;;;;;;;2.25;1.25;;;;;;;;5070242;28;8739;-84
2023/10/28 05:33:03;;;;;;;;;1.50;0.25;;;;;;;;5070667;28;8839;-82
2023/10/28 05:35:30;;;;;;;;;0.00;0.00;;;;;;;;5069757;28;8859;-80
2023/10/28 05:37:58;;;;;;;;;1.00;1.00;;;;;;;;5070963;28;8862;-83
2023/10/28 05:40:27;;;;;;;;;1.00;1.00;;;;;;;;5069619;28;8865;-86
2023/10/28 05:42:54;;;;;;;;;2.00;1.00;;;;;;;;5070351;28;8850;-83
2023/10/28 05:45:22;;;;;;;;;1.00;1.00;;;;;;;;5068883;28;8851;-86
2023/10/28 05:47:49;;;;;;;;;1.00;1.00;;;;;;;;5068514;28;8968;-83
2023/10/28 05:50:17;;;;;;;;;1.00;1.00;;;;;;;;5067751;28;8900;-76
2023/10/28 05:52:44;;;;;;;;;2.25;1.00;;;;;;;;5068583;28;8904;-76
2023/10/28 05:55:12;;;;;;;;;0.50;0.50;;;;;;;;5056595;28;8920;-80
2023/10/28 05:57:43;;;;;;;;;1.00;1.00;;;;;;;;5068947;28;8858;-77
2023/10/28 06:00:11;;;;;;;;;1.25;1.00;;;;;;;;5069562;28;8830;-75
2023/10/28 06:02:39;;;;;;;;;1.75;1.75;;;;;;;;5069150;28;8883;-79
2023/10/28 06:05:07;;;;;;;;;1.00;1.00;;;;;;;;5069488;28;8935;-76
2023/10/28 06:07:34;;;;;;;;;2.00;1.00;;;;;;;;5069139;28;8831;-78
2023/10/28 06:10:07;;;;;;;;;3.00;1.00;;;;;;;;5069694;28;8901;-78
2023/10/28 06:12:35;;;;;;;;;0.00;0.00;;;;;;;;5069689;28;9020;-83
2023/10/28 06:15:04;;;;;;;;;1.00;1.00;;;;;;;;5069726;28;8928;-81
2023/10/28 06:17:35;;;;;;;;;1.00;1.00;;;;;;;;5069246;28;9654;-81
2023/10/28 06:20:05;;;;;;;;;0.50;0.50;;;;;;;;5067816;28;9641;-78
2023/10/28 06:22:32;;;;;;;;;0.50;0.25;;;;;;;;5069302;28;8863;-79
2023/10/28 06:24:59;;;;;;;;;1.00;1.00;;;;;;;;5070413;28;8866;-78
2023/10/28 06:27:26;;;;;;;;;2.00;1.00;;;;;;;;5068362;28;8900;-79
2023/10/28 06:29:54;;;;;;;;;0.75;0.50;;;;;;;;5069007;28;8858;-78
2023/10/28 06:32:22;;;;;;;;;2.50;2.00;;;;;;;;5066294;28;8818;-78
2023/10/28 06:34:49;;;;;;;;;3.50;1.25;;;;;;;;5055645;28;8842;-79
2023/10/28 06:37:17;;;;;;;;;1.00;1.00;;;;;;;;5067941;28;9246;-79
2023/10/28 06:39:46;;;;;;;;;0.00;0.00;;;;;;;;5068244;28;8927;-76
2023/10/28 06:42:14;;;;;;;;;1.00;1.00;;;;;;;;5055780;28;8863;-75
2023/10/28 06:44:43;;;;;;;;;1.00;1.00;;;;;;;;5066474;28;8888;-78
2023/10/28 06:47:10;;;;;;;;;3.75;1.50;;;;;;;;5068851;28;8957;-78
2023/10/28 06:49:39;;;;;;;;;2.00;2.00;;;;;;;;5068357;28;8858;-77
2023/10/28 06:52:07;;;;;;;;;2.00;0.75;;;;;;;;5068414;28;8847;-78
2023/10/28 06:54:34;;;;;;;;;5.25;3.50;;;;;;;;5066679;28;8850;-79
2023/10/28 06:57:04;;;;;;;;;1.25;0.00;;;;;;;;5067191;28;8892;-74
2023/10/28 06:59:35;;;;;;;;;2.00;0.00;;;;;;;;5067818;28;8965;-76
2023/10/28 07:02:02;;;;;;;;;4.50;1.75;;;;;;;;5067816;28;8803;-78
2023/10/28 07:04:30;;;;;;;;;3.00;1.25;;;;;;;;5067316;28;8869;-78
2023/10/28 07:06:58;;;;;;;;;0.00;0.00;;;;;;;;5073047;28;8993;-78
2023/10/28 07:09:25;;;;;;;;;1.25;0.00;;;;;;;;5069292;28;8843;-78
2023/10/28 07:11:53;;;;;;;;;1.00;1.00;;;;;;;;5072813;28;8871;-78
2023/10/28 07:14:20;;;;;;;;;1.75;1.75;;;;;;;;5070358;28;8871;-80
2023/10/28 07:16:48;;;;;;;;;1.75;1.50;;;;;;;;5066927;28;8855;-77
2023/10/28 07:19:15;;;;;;;;;4.50;2.75;;;;;;;;5066814;28;8854;-78
2023/10/28 07:21:42;;;;;;;;;2.00;2.00;;;;;;;;5065592;28;9664;-78
2023/10/28 07:24:12;;;;;;;;;4.25;2.00;;;;;;;;5067169;28;8862;-76
2023/10/28 07:26:40;;;;;;;;;3.25;2.00;;;;;;;;5067173;28;9704;-77
2023/10/28 07:29:10;;;;;;;;;3.00;1.00;;;;;;;;5066816;28;8977;-77
2023/10/28 07:31:39;;;;;;;;;1.50;1.50;;;;;;;;5066041;28;8783;-76
2023/10/28 07:34:07;;;;;;;;;2.50;1.00;;;;;;;;5059036;28;8833;-77
2023/10/28 07:36:34;;;;;;;;;5.00;2.75;;;;;;;;5061042;28;8882;-76
2023/10/28 07:39:05;;;;;;;;;3.50;1.75;;;;;;;;5054617;28;8902;-77
2023/10/28 07:41:36;;;;;;;;;3.00;2.25;;;;;;;;5066396;28;8862;-77
2023/10/28 07:44:04;;;;;;;;;3.00;2.25;;;;;;;;5066779;28;8889;-76
2023/10/28 07:46:31;;;;;;;;;2.25;2.25;;;;;;;;5067899;28;9714;-76
2023/10/28 07:48:58;;;;;;;;;3.75;2.25;;;;;;;;5069499;28;8866;-76
2023/10/28 07:51:26;;;;;;;;;1.75;1.75;;;;;;;;5070748;28;8827;-77
2023/10/28 07:53:53;;;;;;;;;3.00;1.00;;;;;;;;5068151;28;8851;-77
2023/10/28 07:56:21;;;;;;;;;5.25;2.25;;;;;;;;5067186;28;9641;-76
2023/10/28 07:58:50;;;;;;;;;1.00;1.00;;;;;;;;5066580;28;8870;-75
2023/10/28 08:01:18;;;;;;;;;1.00;1.00;;;;;;;;5066224;28;8799;-76
2023/10/28 08:03:47;;;;;;;;;3.50;1.50;;;;;;;;5067487;28;8864;-76
2023/10/28 08:06:15;;;;;;;;;4.00;2.50;;;;;;;;5067200;28;8873;-76
2023/10/28 08:08:42;;;;;;;;;1.50;1.25;;;;;;;;5067521;28;8874;-78
2023/10/28 08:11:09;;;;;;;;;3.00;1.00;;;;;;;;5066945;28;8867;-73
2023/10/28 08:13:37;;;;;;;;;5.50;2.50;;;;;;;;5067355;28;8877;-76
2023/10/28 08:16:09;;;;;;;;;1.00;1.00;;;;;;;;5065155;28;8931;-77
2023/10/28 08:18:36;;;;;;;;;3.00;2.00;;;;;;;;5067387;28;9652;-77
2023/10/28 08:21:04;;;;;;;;;3.75;2.00;;;;;;;;5066949;28;8835;-77
2023/10/28 08:23:31;;;;;;;;;2.75;1.00;;;;;;;;5067216;28;8870;-78
2023/10/28 08:25:58;;;;;;;;;1.50;1.50;;;;;;;;5066431;28;8847;-77
2023/10/28 08:28:27;;;;;;;;;0.75;0.75;;;;;;;;5066490;28;8843;-78
2023/10/28 08:30:55;;;;;;;;;1.00;1.00;;;;;;;;5066385;28;8814;-77
2023/10/28 08:33:24;;;;;;;;;4.00;2.25;;;;;;;;5067451;28;8843;-78
2023/10/28 08:35:52;;;;;;;;;1.50;1.25;;;;;;;;5067654;28;8858;-78
2023/10/28 08:38:19;;;;;;;;;1.50;1.50;;;;;;;;5064683;28;9020;-77
2023/10/28 08:40:47;;;;;;;;;1.25;0.75;;;;;;;;5067669;28;8981;-77
2023/10/28 08:43:17;;;;;;;;;4.25;1.00;;;;;;;;5066955;28;8835;-77
2023/10/28 08:45:45;;;;;;;;;1.75;1.75;;;;;;;;5068264;28;8901;-78
2023/10/28 08:48:13;;;;;;;;;3.00;1.00;;;;;;;;5066351;28;8845;-74
2023/10/28 08:50:44;;;;;;;;;3.00;1.00;;;;;;;;5070191;28;8878;-77
2023/10/28 08:53:14;;;;;;;;;1.75;1.75;;;;;;;;5069795;28;8870;-78
2023/10/28 08:55:41;;;;;;;;;1.00;1.00;;;;;;;;5071700;28;8948;-78
2023/10/28 08:58:09;;;;;;;;;1.00;1.00;;;;;;;;5070606;28;8843;-77
2023/10/28 09:00:38;;;;;;;;;2.75;2.75;;;;;;;;5070467;28;8771;-77
2023/10/28 09:03:06;;;;;;;;;2.50;1.50;;;;;;;;5066368;28;8854;-76
2023/10/28 09:05:33;;;;;;;;;2.75;1.50;;;;;;;;5067130;28;8873;-79
2023/10/28 09:08:03;;;;;;;;;2.25;1.50;;;;;;;;5068772;28;8870;-78
2023/10/28 09:10:35;;;;;;;;;1.75;0.00;;;;;;;;5070152;28;8965;-77
2023/10/28 09:13:06;;;;;;;;;1.00;1.00;;;;;;;;5058763;28;8973;-76
2023/10/28 09:15:34;;;;;;;;;1.25;1.25;;;;;;;;5069399;28;8865;-77
2023/10/28 09:18:04;;;;;;;;;1.50;1.50;;;;;;;;5070640;28;8973;-77
2023/10/28 09:20:31;;;;;;;;;1.00;1.00;;;;;;;;5069011;28;8845;-77
2023/10/28 09:22:58;;;;;;;;;2.00;2.00;;;;;;;;5069845;28;8858;-78
2023/10/28 09:25:27;;;;;;;;;1.75;0.25;;;;;;;;5069733;28;8989;-78
2023/10/28 09:27:54;;;;;;;;;2.25;1.00;;;;;;;;5069450;28;8905;-77
2023/10/28 09:30:21;;;;;;;;;2.00;1.50;;;;;;;;5069137;28;9629;-80
2023/10/28 09:32:49;;;;;;;;;3.25;0.75;;;;;;;;5070028;28;8858;-78
2023/10/28 09:35:16;;;;;;;;;1.00;1.00;;;;;;;;5069703;28;8835;-77
2023/10/28 09:37:44;;;;;;;;;4.50;3.00;;;;;;;;5070387;28;8876;-77
2023/10/28 09:40:12;;;;;;;;;1.25;1.25;;;;;;;;5069041;28;8855;-77
2023/10/28 09:42:43;;;;;;;;;3.50;2.00;;;;;;;;5068521;28;8865;-81
2023/10/28 09:45:11;;;;;;;;;2.25;2.25;;;;;;;;5068788;28;8867;-79
2023/10/28 09:47:46;;;;;;;;;3.25;2.00;;;;;;;;5069100;28;8882;-79
2023/10/28 09:50:15;;;;;;;;;3.00;1.25;;;;;;;;5069131;28;8859;-77
2023/10/28 09:52:44;;;;;;;;;2.00;1.75;;;;;;;;5067662;28;9637;-80
2023/10/28 09:55:14;;;;;;;;;1.50;1.50;;;;;;;;5068466;28;8851;-81
2023/10/28 09:57:44;;;;;;;;;2.00;2.00;;;;;;;;5066447;28;8892;-75
2023/10/28 10:00:17;;;;;;;;;5.00;3.00;;;;;;;;5065163;28;8863;-75
2023/10/28 10:02:58;;;;;;;;;1.25;1.00;;;;;;;;5069552;28;8855;-74
2023/10/28 10:05:33;;;;;;;;;1.00;1.00;;;;;;;;5069543;28;8842;-81
2023/10/28 10:08:02;;;;;;;;;1.00;1.00;;;;;;;;5067339;28;8860;-76
2023/10/28 10:10:29;;;;;;;;;1.50;1.50;;;;;;;;5069607;28;8871;-75
2023/10/28 10:13:04;;;;;;;;;1.00;1.00;;;;;;;;5069218;28;8958;-75
2023/10/28 10:15:34;;;;;;;;;2.00;2.00;;;;;;;;5069061;28;8878;-75
2023/10/28 10:18:10;;;;;;;;;2.00;2.00;;;;;;;;5068207;28;8874;-76
2023/10/28 10:20:42;;;;;;;;;2.00;2.00;;;;;;;;5068955;28;8847;-76
2023/10/28 10:23:11;;;;;;;;;1.25;1.25;;;;;;;;5069442;28;8847;-76
2023/10/28 10:25:40;;;;;;;;;3.00;3.00;;;;;;;;5069269;28;8970;-74
2023/10/28 10:28:15;;;;;;;;;2.50;2.50;;;;;;;;5069163;28;8838;-76
2023/10/28 10:30:43;;;;;;;;;2.00;2.00;;;;;;;;5068705;28;8807;-76
2023/10/28 10:33:10;;;;;;;;;1.00;1.00;;;;;;;;5070840;28;8855;-77
2023/10/28 10:35:38;;;;;;;;;3.00;2.75;;;;;;;;5060377;28;8870;-77
2023/10/28 10:38:06;;;;;;;;;2.00;2.00;;;;;;;;5073552;28;8893;-76
2023/10/28 10:40:35;;;;;;;;;1.00;1.00;;;;;;;;5073268;28;8977;-75
2023/10/28 10:43:07;;;;;;;;;1.50;1.00;;;;;;;;5071933;28;8863;-74
2023/10/28 10:45:36;;;;;;;;;3.00;0.50;;;;;;;;5073655;28;8867;-77
2023/10/28 10:48:04;;;;;;;;;1.75;1.75;;;;;;;;5067167;28;8873;-75
2023/10/28 10:50:32;;;;;;;;;1.00;1.00;;;;;;;;5068281;28;8850;-75
2023/10/28 10:52:59;;;;;;;;;1.00;1.00;;;;;;;;5066773;28;8854;-74
2023/10/28 10:55:31;;;;;;;;;1.00;1.00;;;;;;;;5066818;28;8931;-75
2023/10/28 10:57:59;;;;;;;;;2.00;1.00;;;;;;;;5067781;28;8865;-76
2023/10/28 11:00:26;;;;;;;;;1.25;1.25;;;;;;;;5066775;28;8810;-76
2023/10/28 11:02:58;;;;;;;;;2.25;0.75;;;;;;;;5066288;28;8881;-75
2023/10/28 11:05:32;;;;;;;;;3.00;0.25;;;;;;;;5067836;28;8847;-77
2023/10/28 11:08:04;;;;;;;;;0.50;0.50;;;;;;;;5068346;28;8847;-76
2023/10/28 11:10:34;;;;;;;;;2.00;2.00;;;;;;;;5068174;28;9673;-76
2023/10/28 11:13:05;;;;;;;;;1.00;1.00;;;;;;;;5067532;28;8862;-78
2023/10/28 11:15:33;;;;;;;;;1.00;1.00;;;;;;;;5067829;28;8850;-77
2023/10/28 11:18:06;;;;;;;;;0.75;0.75;;;;;;;;5068801;28;8881;-77
2023/10/28 11:20:33;;;;;;;;;2.00;1.00;;;;;;;;5066313;28;8849;-76
2023/10/28 11:23:01;;;;;;;;;1.00;0.00;;;;;;;;5066198;28;8843;-76
2023/10/28 11:25:34;;;;;;;;;0.50;0.50;;;;;;;;5064298;28;8943;-76
2023/10/28 11:28:07;;;;;;;;;1.50;0.00;;;;;;;;5065078;28;8862;-77
2023/10/28 11:30:34;;;;;;;;;3.25;0.00;;;;;;;;5066222;28;9541;-78
2023/10/28 11:33:07;;;;;;;;;1.50;1.50;;;;;;;;5067925;28;8863;-76
2023/10/28 11:35:35;;;;;;;;;1.00;1.00;;;;;;;;5054334;28;8854;-76
2023/10/28 11:38:04;;;;;;;;;0.25;0.25;;;;;;;;5067783;28;8951;-75
2023/10/28 11:40:34;;;;;;;;;0.75;0.75;;;;;;;;5067227;28;8862;-76
2023/10/28 11:43:05;;;;;;;;;1.00;1.00;;;;;;;;5066760;28;8973;-77
2023/10/28 11:45:32;;;;;;;;;2.75;1.00;;;;;;;;5057684;28;9268;-78
2023/10/28 11:48:17;;;;;;;;;3.25;1.00;;;;;;;;5067019;28;8855;-77
2023/10/28 11:50:49;;;;;;;;;0.25;0.25;;;;;;;;5067346;28;8943;-77
2023/10/28 11:53:24;;;;;;;;;1.00;1.00;;;;;;;;5065579;28;8831;-77
2023/10/28 11:55:51;;;;;;;;;1.00;1.00;;;;;;;;5066631;28;8884;-76
2023/10/28 11:58:18;;;;;;;;;0.50;0.50;;;;;;;;5066178;28;8858;-76
2023/10/28 12:00:50;;;;;;;;;0.50;0.50;;;;;;;;5066691;28;8874;-76
2023/10/28 12:03:22;;;;;;;;;1.25;0.50;;;;;;;;5053889;28;8928;-77
2023/10/28 12:05:49;;;;;;;;;1.00;1.00;;;;;;;;5067264;28;8851;-76
2023/10/28 12:08:17;;;;;;;;;1.00;1.00;;;;;;;;5066778;28;8880;-76
2023/10/28 12:10:45;;;;;;;;;0.50;0.50;;;;;;;;5065327;28;8861;-77
2023/10/28 12:13:12;;;;;;;;;0.75;0.25;;;;;;;;5065873;28;9713;-76
2023/10/28 12:15:43;;;;;;;;;1.00;1.00;;;;;;;;5064692;28;8857;-79
2023/10/28 12:18:12;;;;;;;;;1.00;1.00;;;;;;;;5066196;28;8953;-78
2023/10/28 12:20:52;;;;;;;;;1.00;1.00;;;;;;;;5067569;28;8835;-76
2023/10/28 12:23:19;;;;;;;;;1.50;1.50;;;;;;;;5069981;28;8855;-77
2023/10/28 12:25:51;;;;;;;;;0.25;0.25;;;;;;;;5068857;28;8855;-77
2023/10/28 12:28:24;;;;;;;;;1.75;1.00;;;;;;;;5067213;28;8866;-76
2023/10/28 12:30:52;;;;;;;;;1.00;1.00;;;;;;;;5053981;28;8758;-78
2023/10/28 12:33:22;;;;;;;;;1.25;1.25;;;;;;;;5060612;28;8851;-77
2023/10/28 12:35:50;;;;;;;;;1.00;1.00;;;;;;;;5056118;28;8835;-78
2023/10/28 12:38:17;;;;;;;;;0.50;0.50;;;;;;;;5068309;28;8858;-76
2023/10/28 12:40:44;;;;;;;;;0.00;0.00;;;;;;;;5066873;28;8859;-77
2023/10/28 12:43:13;;;;;;;;;0.75;0.75;;;;;;;;5069912;28;8843;-76
2023/10/28 12:45:41;;;;;;;;;1.00;1.00;;;;;;;;5071161;28;8858;-77
2023/10/28 12:48:08;;;;;;;;;1.00;1.00;;;;;;;;5070701;28;8850;-76
2023/10/28 12:50:40;;;;;;;;;0.25;0.25;;;;;;;;5070798;28;8866;-76
2023/10/28 12:53:10;;;;;;;;;1.50;0.00;;;;;;;;5070044;28;8846;-77
2023/10/28 12:55:38;;;;;;;;;1.00;1.00;;;;;;;;5070588;28;8927;-77
2023/10/28 12:58:09;;;;;;;;;2.00;0.00;;;;;;;;5070158;28;8854;-77
2023/10/28 13:03:28;;;;;;;;;0.00;0.00;;;;;;;;5058780;28;8871;-78
2023/10/28 13:05:56;;;;;;;;;1.00;1.00;;;;;;;;5070828;28;8855;-77
2023/10/28 13:08:24;;;;;;;;;1.00;1.00;;;;;;;;5070159;28;9025;-78
2023/10/28 13:10:53;;;;;;;;;0.75;0.75;;;;;;;;5070438;28;8854;-76
2023/10/28 13:13:30;;;;;;;;;2.00;0.00;;;;;;;;5068852;28;8846;-76
2023/10/28 13:15:57;;;;;;;;;0.75;0.75;;;;;;;;5068293;28;8854;-76
2023/10/28 13:18:24;;;;;;;;;0.00;0.00;;;;;;;;5070282;28;8891;-76
2023/10/28 13:20:51;;;;;;;;;0.00;0.00;;;;;;;;5069070;28;8846;-77
2023/10/28 13:23:18;;;;;;;;;0.00;0.00;;;;;;;;5069713;28;8850;-76
2023/10/28 13:25:49;;;;;;;;;0.00;0.00;;;;;;;;5067120;28;8865;-76
2023/10/28 13:28:17;;;;;;;;;0.00;0.00;;;;;;;;5068773;28;8986;-76
2023/10/28 13:30:44;;;;;;;;;0.00;0.00;;;;;;;;5067347;28;8827;-78
2023/10/28 13:33:12;;;;;;;;;0.25;0.25;;;;;;;;5068290;28;8853;-74
2023/10/28 13:35:40;;;;;;;;;0.00;0.00;;;;;;;;5057930;28;8888;-76
2023/10/28 13:38:07;;;;;;;;;1.00;0.00;;;;;;;;5070871;28;8863;-77
2023/10/28 13:40:34;;;;;;;;;0.75;0.75;;;;;;;;5069954;28;8887;-75
2023/10/28 13:43:07;;;;;;;;;0.25;0.25;;;;;;;;5070148;28;8842;-76
2023/10/28 13:45:34;;;;;;;;;0.00;0.00;;;;;;;;5058185;28;8858;-75
2023/10/28 13:48:04;;;;;;;;;0.00;0.00;;;;;;;;5069941;28;8889;-76
2023/10/28 13:50:33;;;;;;;;;1.00;1.00;;;;;;;;5069129;28;9546;-79
2023/10/28 13:53:00;;;;;;;;;0.00;0.00;;;;;;;;5068580;28;8860;-76
2023/10/28 13:55:28;;;;;;;;;2.00;0.00;;;;;;;;5069310;28;8870;-76
2023/10/28 13:57:55;;;;;;;;;1.25;0.25;;;;;;;;5068801;28;8837;-77
2023/10/28 14:00:24;;;;;;;;;0.00;0.00;;;;;;;;5069476;28;8687;-75
2023/10/28 14:02:51;;;;;;;;;0.00;0.00;;;;;;;;5071213;28;8826;-78
2023/10/28 14:05:19;;;;;;;;;0.00;0.00;;;;;;;;5073079;28;8872;-75
2023/10/28 14:07:46;;;;;;;;;0.00;0.00;;;;;;;;5071238;28;8885;-76
2023/10/28 14:10:13;;;;;;;;;0.00;0.00;;;;;;;;5073176;28;8863;-76
2023/10/28 14:12:41;;;;;;;;;0.00;0.00;;;;;;;;5072429;28;8870;-75
2023/10/28 14:15:12;;;;;;;;;0.00;0.00;;;;;;;;5072014;28;8842;-76
2023/10/28 14:17:41;;;;;;;;;0.50;0.50;;;;;;;;5068055;28;8850;-80
2023/10/28 14:20:10;;;;;;;;;1.25;1.00;;;;;;;;5068396;28;8859;-78
2023/10/28 14:22:39;;;;;;;;;0.00;0.00;;;;;;;;5069190;28;8862;-78
2023/10/28 14:25:09;;;;;;;;;0.25;0.00;;;;;;;;5068038;28;8951;-79
2023/10/28 14:27:36;;;;;;;;;0.00;0.00;;;;;;;;5069411;28;8857;-76
2023/10/28 14:30:07;;;;;;;;;0.00;0.00;;;;;;;;5067955;28;8882;-76
2023/10/28 14:32:35;;;;;;;;;1.00;1.00;;;;;;;;5068171;28;9746;-78
2023/10/28 14:35:05;;;;;;;;;0.00;0.00;;;;;;;;5055699;28;8869;-79
2023/10/28 14:37:32;;;;;;;;;3.00;0.00;;;;;;;;5068987;28;8847;-83
2023/10/28 14:40:02;;;;;;;;;0.00;0.00;;;;;;;;5068886;28;8842;-78
2023/10/28 14:42:30;;;;;;;;;0.50;0.00;;;;;;;;5068183;28;8861;-77
2023/10/28 14:44:57;;;;;;;;;0.00;0.00;;;;;;;;5068330;28;8839;-79
2023/10/28 14:47:24;;;;;;;;;0.00;0.00;;;;;;;;5067538;28;8879;-77
2023/10/28 14:49:51;;;;;;;;;0.00;0.00;;;;;;;;5066905;28;8866;-77
2023/10/28 14:52:22;;;;;;;;;0.00;0.00;;;;;;;;5069090;28;8847;-77
2023/10/28 14:54:49;;;;;;;;;3.50;0.00;;;;;;;;5066913;28;8853;-77
2023/10/28 14:57:17;;;;;;;;;0.00;0.00;;;;;;;;5067137;28;8870;-76
2023/10/28 14:59:46;;;;;;;;;0.00;0.00;;;;;;;;5067296;28;8889;-75
2023/10/28 15:02:13;;;;;;;;;0.00;0.00;;;;;;;;5066746;28;8929;-79
2023/10/28 15:04:43;;;;;;;;;0.00;0.00;;;;;;;;5067616;28;9686;-76
2023/10/28 15:07:10;;;;;;;;;0.00;0.00;;;;;;;;5066784;28;8865;-75
2023/10/28 15:09:41;;;;;;;;;0.00;0.00;;;;;;;;5065256;28;8863;-76